METAR Data
IDs: Format: Raw Decoded Include TAF

Data at: 0740 UTC 18 Nov 2018

PADE 180653Z AUTO 07012KT 10SM OVC095 M04/M07 A2948 RMK AO2 SLP982 T10391067 TSNO
PADE 180553Z AUTO 07017KT 10SM OVC095 M03/M07 A2948 RMK AO2 SLP982 60000 T10331067 11028 21039 58008 TSNO
PADE 180453Z AUTO 08011KT 10SM OVC080 M03/M07 A2949 RMK AO2 SLP985 T10331067 TSNO
PADE 180353Z AUTO 07013KT 10SM OVC060 M03/M07 A2950 RMK AO2 SLP989 T10331067 TSNO
PADE 180253Z AUTO 08013KT 10SM OVC065 M03/M07 A2950 RMK AO2 SLP991 60000 T10331067 56007 TSNO
PADE 180153Z AUTO 07020KT 10SM SCT034 OVC050 M03/M06 A2950 RMK AO2 SLP991 T10281061 TSNO
PADE 180119Z AUTO 07019G23KT 10SM SCT024 OVC032 M03/M06 A2951 RMK AO2 T10281056 TSNO
PADE 180053Z AUTO 07017KT 10SM OVC020 M03/M04 A2951 RMK AO2 UPB2357E05SNE2357 SLP992 P0000 T10281044 TSNO
PADE 172353Z AUTO 07014KT 4SM -SN BR BKN020 OVC026 M03/M04 A2952 RMK AO2 UPB2258E10SNB10 SLP998 P0000 60007 T10281039 58006 TSNO
PADE 172334Z AUTO 06015KT 4SM -SN BR FEW013 BKN021 OVC043 M03/M04 A2953 RMK AO2 UPB2258E10SNB10 P0000 T10281039 TSNO
PADE 172323Z AUTO 06017KT 2SM -SN BR FEW013 BKN022 OVC047 M03/M04 A2953 RMK AO2 UPB2258E10SNB10 P0000 T10281039 TSNO
PADE 172253Z AUTO 07015KT 10SM BKN042 OVC055 M03/M03 A2953 RMK AO2 SNE39 SLP001 P0000 T10281033 TSNO
PADE 172223Z AUTO 07011KT 3SM -SN BR BKN033 OVC043 M02/M03 A2954 RMK AO2 P0000 T10221028 TSNO
PADE 172153Z AUTO 08010KT 2 1/2SM -SN BR OVC030 M03/M03 A2954 RMK AO2 UPB2058E00SNB00 SLP003 P0000 T10281028 TSNO
PADE 172150Z AUTO 08011KT 2SM -SN BR OVC030 M03/M03 A2954 RMK AO2 UPB2058E00SNB00 P0000 TSNO
PADE 172138Z AUTO 07011KT 1SM -SN BR FEW013 OVC026 M03/M03 A2954 RMK AO2 UPB2058E00SNB00 P0000 T10281033 TSNO
PADE 172127Z AUTO 07011KT 3/4SM -SN BR SCT013 OVC024 M03/M03 A2954 RMK AO2 UPB2058E00SNB00 P0000 T10281033 TSNO
PADE 172117Z AUTO 08012KT 1 3/4SM -SN BR BKN012 OVC030 M03/M03 A2954 RMK AO2 UPB2058E00SNB00 P0000 T10281028 TSNO
PADE 172112Z AUTO 07011KT 2 1/2SM -SN BR SCT012 OVC035 M03/M03 A2954 RMK AO2 UPB2058E00SNB00 P0000 T10281028 TSNO
PADE 172053Z AUTO 07012KT 7SM M03/M03 A2954 RMK AO2 UPB38E47 SLP004 P0000 60007 T10281028 TSNO $
PADE 172010Z AUTO 07009KT 1 3/4SM -SN BR M02/M03 A2955 RMK AO2 SNB03 P0007 T10221028 TSNO $
PADE 171953Z AUTO A2955 RMK AO2 SLP008 PWINO FZRANO TSNO $
PADE 171853Z AUTO A2955 RMK AO2 SLP008 PWINO FZRANO TSNO $
PADE 171753Z AUTO A2956 RMK AO2 SLP012 56003 PWINO FZRANO TSNO $
PADE 171653Z AUTO A2956 RMK AO2 SLP012 PWINO FZRANO TSNO $
PADE 171553Z AUTO A2956 RMK AO2 SLP012 PWINO FZRANO TSNO $
PADE 171453Z AUTO A2957 RMK AO2 SLP015 58017 PWINO FZRANO TSNO $
PADE 171353Z AUTO A2959 RMK AO2 SLP022 PWINO FZRANO TSNO $
PADE 171253Z AUTO A2961 RMK AO2 SLP029 PWINO FZRANO TSNO $
PADE 171153Z AUTO A2962 RMK AO2 SLP032 58014 PWINO FZRANO TSNO $
PADE 171053Z AUTO A2964 RMK AO2 SLP039 PWINO FZRANO TSNO $
PADE 170953Z AUTO A2966 RMK AO2 SLP046 PWINO FZRANO TSNO $
PADE 170853Z AUTO A2966 RMK AO2 SLP046 57014 PWINO FZRANO TSNO $
PADE 170753Z AUTO A2967 RMK AO2 SLP049 PWINO FZRANO TSNO $
PADE 170653Z AUTO A2969 RMK AO2 SLP056 PWINO FZRANO TSNO $
PADE 170553Z AUTO A2970 RMK AO2 SLP059 57017 PWINO FZRANO TSNO $
PADE 170453Z AUTO A2972 RMK AO2 SLP066 PWINO FZRANO TSNO $
PADE 170353Z AUTO A2973 RMK AO2 SLP069 PWINO FZRANO TSNO $
PADE 170253Z AUTO A2975 RMK AO2 SLP076 56017 PWINO FZRANO TSNO $
PADE 170153Z AUTO A2976 RMK AO2 SLP079 PWINO FZRANO TSNO $
PADE 170053Z AUTO A2978 RMK AO2 SLP086 PWINO FZRANO TSNO $
PADE 162353Z AUTO A2980 RMK AO2 SLP093 57017 PWINO FZRANO TSNO $
PADE 162253Z AUTO A2982 RMK AO2 SLP100 PWINO FZRANO TSNO $
PADE 162153Z AUTO A2983 RMK AO2 SLP103 PWINO FZRANO TSNO $
PADE 162053Z AUTO A2985 RMK AO2 SLP110 58010 PWINO FZRANO TSNO $
PADE 161953Z AUTO A2987 RMK AO2 SLP117 PWINO FZRANO TSNO $